sensor_id;sensor_type;location;lat;lon;timestamp;pressure;altitude;pressure_sealevel;temperature;humidity
49843;BME280;55559;48.898;9.184;2022-07-29T00:01:30;98212.41;;;19.46;100.00
49843;BME280;55559;48.898;9.184;2022-07-29T00:03:58;98215.72;;;19.41;100.00
49843;BME280;55559;48.898;9.184;2022-07-29T00:06:27;98215.88;;;19.33;100.00
49843;BME280;55559;48.898;9.184;2022-07-29T00:08:54;98217.06;;;19.24;100.00
49843;BME280;55559;48.898;9.184;2022-07-29T00:11:21;98211.22;;;19.20;100.00
49843;BME280;55559;48.898;9.184;2022-07-29T00:13:49;98201.72;;;19.24;100.00
49843;BME280;55559;48.898;9.184;2022-07-29T00:16:17;98199.84;;;19.25;100.00
49843;BME280;55559;48.898;9.184;2022-07-29T00:18:44;98193.84;;;19.23;100.00
49843;BME280;55559;48.898;9.184;2022-07-29T00:21:11;98181.41;;;19.28;100.00
49843;BME280;55559;48.898;9.184;2022-07-29T00:23:40;98183.72;;;19.31;100.00
49843;BME280;55559;48.898;9.184;2022-07-29T00:26:08;98186.97;;;19.20;100.00
49843;BME280;55559;48.898;9.184;2022-07-29T00:28:35;98184.00;;;19.08;100.00
49843;BME280;55559;48.898;9.184;2022-07-29T00:31:03;98185.44;;;19.04;100.00
49843;BME280;55559;48.898;9.184;2022-07-29T00:33:30;98178.38;;;19.03;100.00
49843;BME280;55559;48.898;9.184;2022-07-29T00:35:58;98185.81;;;19.01;100.00
49843;BME280;55559;48.898;9.184;2022-07-29T00:38:24;98178.13;;;18.98;100.00
49843;BME280;55559;48.898;9.184;2022-07-29T00:40:59;98180.34;;;18.88;100.00
49843;BME280;55559;48.898;9.184;2022-07-29T00:43:27;98172.47;;;18.86;100.00
49843;BME280;55559;48.898;9.184;2022-07-29T00:45:54;98177.47;;;18.89;100.00
49843;BME280;55559;48.898;9.184;2022-07-29T00:48:22;98184.91;;;18.87;100.00
49843;BME280;55559;48.898;9.184;2022-07-29T00:50:50;98175.41;;;18.91;100.00
49843;BME280;55559;48.898;9.184;2022-07-29T00:53:19;98179.66;;;18.79;100.00
49843;BME280;55559;48.898;9.184;2022-07-29T00:55:47;98177.91;;;18.71;100.00
49843;BME280;55559;48.898;9.184;2022-07-29T00:58:16;98173.88;;;18.82;100.00
49843;BME280;55559;48.898;9.184;2022-07-29T01:00:44;98171.56;;;18.79;100.00
49843;BME280;55559;48.898;9.184;2022-07-29T01:03:11;98172.19;;;18.81;100.00
49843;BME280;55559;48.898;9.184;2022-07-29T01:05:41;98171.56;;;18.79;100.00
49843;BME280;55559;48.898;9.184;2022-07-29T01:08:10;98164.63;;;18.70;100.00
49843;BME280;55559;48.898;9.184;2022-07-29T01:10:39;98160.75;;;18.72;100.00
49843;BME280;55559;48.898;9.184;2022-07-29T01:13:08;98163.56;;;18.64;100.00
49843;BME280;55559;48.898;9.184;2022-07-29T01:15:47;98162.84;;;18.49;100.00
49843;BME280;55559;48.898;9.184;2022-07-29T01:18:19;98167.13;;;18.43;100.00
49843;BME280;55559;48.898;9.184;2022-07-29T01:21:21;98161.66;;;18.58;100.00
49843;BME280;55559;48.898;9.184;2022-07-29T01:24:09;98165.78;;;18.54;100.00
49843;BME280;55559;48.898;9.184;2022-07-29T01:26:44;98155.16;;;18.46;100.00
49843;BME280;55559;48.898;9.184;2022-07-29T01:29:18;98158.66;;;18.46;100.00
49843;BME280;55559;48.898;9.184;2022-07-29T01:31:56;98154.72;;;18.42;100.00
49843;BME280;55559;48.898;9.184;2022-07-29T01:34:30;98165.84;;;18.39;100.00
49843;BME280;55559;48.898;9.184;2022-07-29T01:37:06;98164.38;;;18.36;100.00
49843;BME280;55559;48.898;9.184;2022-07-29T01:39:36;98164.78;;;18.33;100.00
49843;BME280;55559;48.898;9.184;2022-07-29T01:42:12;98163.69;;;18.28;100.00
49843;BME280;55559;48.898;9.184;2022-07-29T01:44:50;98163.56;;;18.14;100.00
49843;BME280;55559;48.898;9.184;2022-07-29T01:47:23;98152.53;;;18.09;100.00
49843;BME280;55559;48.898;9.184;2022-07-29T01:49:54;98155.34;;;18.01;100.00
49843;BME280;55559;48.898;9.184;2022-07-29T01:52:27;98157.34;;;17.92;100.00
49843;BME280;55559;48.898;9.184;2022-07-29T01:54:58;98157.06;;;17.87;100.00
49843;BME280;55559;48.898;9.184;2022-07-29T01:57:29;98154.66;;;17.77;100.00
49843;BME280;55559;48.898;9.184;2022-07-29T02:00:01;98162.88;;;17.69;100.00
49843;BME280;55559;48.898;9.184;2022-07-29T02:02:39;98158.06;;;17.64;100.00
49843;BME280;55559;48.898;9.184;2022-07-29T02:05:10;98156.56;;;17.62;100.00
49843;BME280;55559;48.898;9.184;2022-07-29T02:07:40;98149.72;;;17.59;100.00
49843;BME280;55559;48.898;9.184;2022-07-29T02:10:09;98143.72;;;17.57;100.00
49843;BME280;55559;48.898;9.184;2022-07-29T02:12:38;98136.84;;;17.55;100.00
49843;BME280;55559;48.898;9.184;2022-07-29T02:15:09;98145.34;;;17.58;100.00
49843;BME280;55559;48.898;9.184;2022-07-29T02:17:41;98145.53;;;17.57;100.00
49843;BME280;55559;48.898;9.184;2022-07-29T02:20:09;98143.91;;;17.56;100.00
49843;BME280;55559;48.898;9.184;2022-07-29T02:22:39;98151.03;;;17.48;100.00
49843;BME280;55559;48.898;9.184;2022-07-29T02:25:08;98147.06;;;17.44;100.00
49843;BME280;55559;48.898;9.184;2022-07-29T02:27:38;98150.94;;;17.42;100.00
49843;BME280;55559;48.898;9.184;2022-07-29T02:30:09;98154.22;;;17.37;100.00
49843;BME280;55559;48.898;9.184;2022-07-29T02:32:39;98151.25;;;17.32;100.00
49843;BME280;55559;48.898;9.184;2022-07-29T02:35:09;98145.13;;;17.23;100.00
49843;BME280;55559;48.898;9.184;2022-07-29T02:37:36;98151.47;;;17.16;100.00
49843;BME280;55559;48.898;9.184;2022-07-29T02:40:09;98152.00;;;17.11;100.00
49843;BME280;55559;48.898;9.184;2022-07-29T02:42:39;98153.22;;;17.08;100.00
49843;BME280;55559;48.898;9.184;2022-07-29T02:45:10;98149.69;;;17.08;100.00
49843;BME280;55559;48.898;9.184;2022-07-29T02:47:42;98147.75;;;17.02;100.00
49843;BME280;55559;48.898;9.184;2022-07-29T02:50:13;98156.00;;;17.00;100.00
49843;BME280;55559;48.898;9.184;2022-07-29T02:52:44;98155.91;;;16.94;100.00
49843;BME280;55559;48.898;9.184;2022-07-29T02:55:19;98154.22;;;16.92;100.00
49843;BME280;55559;48.898;9.184;2022-07-29T02:57:57;98155.44;;;16.90;100.00
49843;BME280;55559;48.898;9.184;2022-07-29T03:00:28;98149.22;;;16.89;100.00
49843;BME280;55559;48.898;9.184;2022-07-29T03:02:59;98153.94;;;16.87;100.00
49843;BME280;55559;48.898;9.184;2022-07-29T03:05:29;98154.47;;;16.83;100.00
49843;BME280;55559;48.898;9.184;2022-07-29T03:08:01;98154.66;;;16.81;100.00
49843;BME280;55559;48.898;9.184;2022-07-29T03:10:30;98160.41;;;16.78;100.00
49843;BME280;55559;48.898;9.184;2022-07-29T03:12:58;98159.91;;;16.74;100.00
49843;BME280;55559;48.898;9.184;2022-07-29T03:15:29;98160.59;;;16.77;100.00
49843;BME280;55559;48.898;9.184;2022-07-29T03:17:57;98163.28;;;16.77;100.00
49843;BME280;55559;48.898;9.184;2022-07-29T03:20:25;98156.69;;;16.79;100.00
49843;BME280;55559;48.898;9.184;2022-07-29T03:22:53;98159.78;;;16.91;100.00
49843;BME280;55559;48.898;9.184;2022-07-29T03:25:20;98150.72;;;16.92;100.00
49843;BME280;55559;48.898;9.184;2022-07-29T03:27:48;98162.75;;;16.96;100.00
49843;BME280;55559;48.898;9.184;2022-07-29T03:30:18;98158.78;;;16.92;100.00
49843;BME280;55559;48.898;9.184;2022-07-29T03:32:48;98154.88;;;16.95;100.00
49843;BME280;55559;48.898;9.184;2022-07-29T03:35:15;98150.91;;;16.90;100.00
49843;BME280;55559;48.898;9.184;2022-07-29T03:37:43;98154.22;;;16.92;100.00
49843;BME280;55559;48.898;9.184;2022-07-29T03:40:14;98153.69;;;16.97;100.00
49843;BME280;55559;48.898;9.184;2022-07-29T03:42:44;98152.00;;;17.11;100.00
49843;BME280;55559;48.898;9.184;2022-07-29T03:45:15;98161.94;;;17.25;100.00
49843;BME280;55559;48.898;9.184;2022-07-29T03:47:48;98157.00;;;17.29;100.00
49843;BME280;55559;48.898;9.184;2022-07-29T03:50:18;98157.28;;;17.34;100.00
49843;BME280;55559;48.898;9.184;2022-07-29T03:52:47;98161.69;;;17.42;100.00
49843;BME280;55559;48.898;9.184;2022-07-29T03:55:15;98155.41;;;17.50;100.00
49843;BME280;55559;48.898;9.184;2022-07-29T03:57:45;98152.97;;;17.55;100.00
49843;BME280;55559;48.898;9.184;2022-07-29T04:00:13;98161.13;;;17.61;100.00
49843;BME280;55559;48.898;9.184;2022-07-29T04:02:43;98155.69;;;17.76;100.00
49843;BME280;55559;48.898;9.184;2022-07-29T04:05:15;98153.38;;;17.88;100.00
49843;BME280;55559;48.898;9.184;2022-07-29T04:07:43;98147.53;;;17.84;100.00
49843;BME280;55559;48.898;9.184;2022-07-29T04:10:11;98154.09;;;17.82;100.00
49843;BME280;55559;48.898;9.184;2022-07-29T04:12:38;98150.22;;;17.84;100.00
49843;BME280;55559;48.898;9.184;2022-07-29T04:15:07;98152.91;;;17.84;100.00
49843;BME280;55559;48.898;9.184;2022-07-29T04:17:34;98152.81;;;17.78;100.00
49843;BME280;55559;48.898;9.184;2022-07-29T04:20:02;98147.66;;;17.61;100.00
49843;BME280;55559;48.898;9.184;2022-07-29T04:22:31;98161.94;;;17.62;100.00
49843;BME280;55559;48.898;9.184;2022-07-29T04:24:59;98157.97;;;17.58;100.00
49843;BME280;55559;48.898;9.184;2022-07-29T04:27:26;98154.47;;;17.57;100.00
49843;BME280;55559;48.898;9.184;2022-07-29T04:29:54;98153.25;;;17.60;100.00
49843;BME280;55559;48.898;9.184;2022-07-29T04:32:22;98151.19;;;17.62;100.00
49843;BME280;55559;48.898;9.184;2022-07-29T04:34:49;98159.06;;;17.63;100.00
49843;BME280;55559;48.898;9.184;2022-07-29T04:37:16;98160.72;;;17.79;100.00
49843;BME280;55559;48.898;9.184;2022-07-29T04:39:45;98159.28;;;17.98;100.00
49843;BME280;55559;48.898;9.184;2022-07-29T04:42:13;98159.34;;;18.05;100.00
49843;BME280;55559;48.898;9.184;2022-07-29T04:44:40;98166.38;;;18.06;100.00
49843;BME280;55559;48.898;9.184;2022-07-29T04:47:08;98164.16;;;18.10;100.00
49843;BME280;55559;48.898;9.184;2022-07-29T04:49:37;98162.28;;;18.10;100.00
49843;BME280;55559;48.898;9.184;2022-07-29T04:52:05;98168.81;;;18.01;100.00
49843;BME280;55559;48.898;9.184;2022-07-29T04:54:33;98165.03;;;17.95;100.00
49843;BME280;55559;48.898;9.184;2022-07-29T04:57:02;98164.41;;;17.93;100.00
49843;BME280;55559;48.898;9.184;2022-07-29T04:59:30;98163.94;;;17.90;100.00
49843;BME280;55559;48.898;9.184;2022-07-29T05:01:57;98164.03;;;17.96;100.00
49843;BME280;55559;48.898;9.184;2022-07-29T05:04:25;98159.91;;;18.00;100.00
49843;BME280;55559;48.898;9.184;2022-07-29T05:06:52;98165.47;;;18.20;100.00
49843;BME280;55559;48.898;9.184;2022-07-29T05:09:20;98159.94;;;18.50;100.00
49843;BME280;55559;48.898;9.184;2022-07-29T05:11:47;98163.13;;;18.61;100.00
49843;BME280;55559;48.898;9.184;2022-07-29T05:14:16;98154.31;;;18.73;100.00
49843;BME280;55559;48.898;9.184;2022-07-29T05:16:43;98156.41;;;18.78;100.00
49843;BME280;55559;48.898;9.184;2022-07-29T05:19:11;98152.31;;;18.82;100.00
49843;BME280;55559;48.898;9.184;2022-07-29T05:21:38;98169.50;;;18.81;100.00
49843;BME280;55559;48.898;9.184;2022-07-29T05:24:06;98168.75;;;18.87;100.00
49843;BME280;55559;48.898;9.184;2022-07-29T05:26:33;98170.47;;;19.02;100.00
49843;BME280;55559;48.898;9.184;2022-07-29T05:29:01;98166.00;;;19.15;100.00
49843;BME280;55559;48.898;9.184;2022-07-29T05:31:30;98170.41;;;19.23;100.00
49843;BME280;55559;48.898;9.184;2022-07-29T05:33:57;98163.53;;;19.21;100.00
49843;BME280;55559;48.898;9.184;2022-07-29T05:36:25;98167.78;;;19.37;100.00
49843;BME280;55559;48.898;9.184;2022-07-29T05:38:52;98166.53;;;19.39;100.00
49843;BME280;55559;48.898;9.184;2022-07-29T05:41:20;98169.44;;;19.44;100.00
49843;BME280;55559;48.898;9.184;2022-07-29T05:43:48;98170.63;;;19.70;100.00
49843;BME280;55559;48.898;9.184;2022-07-29T05:46:15;98167.50;;;19.73;100.00
49843;BME280;55559;48.898;9.184;2022-07-29T05:48:44;98182.47;;;19.76;100.00
49843;BME280;55559;48.898;9.184;2022-07-29T05:51:11;98172.50;;;19.76;100.00
49843;BME280;55559;48.898;9.184;2022-07-29T05:53:39;98177.97;;;19.96;100.00
49843;BME280;55559;48.898;9.184;2022-07-29T05:56:06;98183.41;;;20.16;100.00
49843;BME280;55559;48.898;9.184;2022-07-29T05:58:34;98181.75;;;20.09;100.00
49843;BME280;55559;48.898;9.184;2022-07-29T06:01:02;98184.66;;;20.27;100.00
49843;BME280;55559;48.898;9.184;2022-07-29T06:03:29;98185.72;;;20.33;100.00
49843;BME280;55559;48.898;9.184;2022-07-29T06:05:58;98189.66;;;20.50;100.00
49843;BME280;55559;48.898;9.184;2022-07-29T06:08:26;98189.88;;;20.62;100.00
49843;BME280;55559;48.898;9.184;2022-07-29T06:10:53;98196.78;;;21.70;100.00
49843;BME280;55559;48.898;9.184;2022-07-29T06:13:21;98189.34;;;22.36;100.00
49843;BME280;55559;48.898;9.184;2022-07-29T06:15:48;98187.94;;;22.33;100.00
49843;BME280;55559;48.898;9.184;2022-07-29T06:18:15;98198.09;;;23.13;100.00
49843;BME280;55559;48.898;9.184;2022-07-29T06:20:43;98201.28;;;22.60;100.00
49843;BME280;55559;48.898;9.184;2022-07-29T06:23:12;98199.50;;;23.41;100.00
49843;BME280;55559;48.898;9.184;2022-07-29T06:25:40;98196.47;;;23.68;100.00
49843;BME280;55559;48.898;9.184;2022-07-29T06:28:08;98200.34;;;24.51;100.00
49843;BME280;55559;48.898;9.184;2022-07-29T06:30:35;98199.63;;;24.44;100.00
49843;BME280;55559;48.898;9.184;2022-07-29T06:33:03;98202.53;;;24.00;100.00
49843;BME280;55559;48.898;9.184;2022-07-29T06:35:30;98205.34;;;23.75;100.00
49843;BME280;55559;48.898;9.184;2022-07-29T06:38:00;98217.16;;;23.07;100.00
49843;BME280;55559;48.898;9.184;2022-07-29T06:40:29;98211.44;;;23.15;100.00
49843;BME280;55559;48.898;9.184;2022-07-29T06:43:14;98215.22;;;22.63;100.00
49843;BME280;55559;48.898;9.184;2022-07-29T06:45:41;98220.34;;;22.46;100.00
49843;BME280;55559;48.898;9.184;2022-07-29T06:48:09;98215.22;;;22.32;100.00
49843;BME280;55559;48.898;9.184;2022-07-29T06:50:36;98217.72;;;22.33;100.00
49843;BME280;55559;48.898;9.184;2022-07-29T06:53:04;98220.44;;;22.33;100.00
49843;BME280;55559;48.898;9.184;2022-07-29T06:55:33;98230.22;;;22.27;100.00
49843;BME280;55559;48.898;9.184;2022-07-29T06:58:02;98221.56;;;23.01;100.00
49843;BME280;55559;48.898;9.184;2022-07-29T07:00:29;98231.97;;;23.48;100.00
49843;BME280;55559;48.898;9.184;2022-07-29T07:02:57;98220.94;;;23.98;100.00
49843;BME280;55559;48.898;9.184;2022-07-29T07:05:24;98229.72;;;24.30;97.05
49843;BME280;55559;48.898;9.184;2022-07-29T07:07:52;98216.13;;;24.61;93.41
49843;BME280;55559;48.898;9.184;2022-07-29T07:10:19;98227.94;;;24.36;95.96
49843;BME280;55559;48.898;9.184;2022-07-29T07:12:48;98225.91;;;24.62;91.26
49843;BME280;55559;48.898;9.184;2022-07-29T07:15:16;98225.19;;;24.55;91.92
49843;BME280;55559;48.898;9.184;2022-07-29T07:17:47;98225.03;;;24.49;89.79
49843;BME280;55559;48.898;9.184;2022-07-29T07:20:15;98226.06;;;24.06;93.91
49843;BME280;55559;48.898;9.184;2022-07-29T07:22:43;98233.19;;;24.19;94.67
49843;BME280;55559;48.898;9.184;2022-07-29T07:25:11;98224.53;;;24.71;87.40
49843;BME280;55559;48.898;9.184;2022-07-29T07:27:38;98229.84;;;24.66;86.62
49843;BME280;55559;48.898;9.184;2022-07-29T07:30:08;98231.91;;;23.91;94.05
49843;BME280;55559;48.898;9.184;2022-07-29T07:32:35;98229.84;;;24.05;94.92
49843;BME280;55559;48.898;9.184;2022-07-29T07:35:04;98236.28;;;23.92;95.19
49843;BME280;55559;48.898;9.184;2022-07-29T07:37:32;98238.06;;;23.43;100.00
49843;BME280;55559;48.898;9.184;2022-07-29T07:40:00;98237.56;;;23.90;96.79
49843;BME280;55559;48.898;9.184;2022-07-29T07:42:27;98237.63;;;24.32;91.40
49843;BME280;55559;48.898;9.184;2022-07-29T07:44:55;98235.88;;;24.07;91.48
49843;BME280;55559;48.898;9.184;2022-07-29T07:47:24;98241.16;;;24.32;89.99
49843;BME280;55559;48.898;9.184;2022-07-29T07:49:51;98230.75;;;24.60;86.79
49843;BME280;55559;48.898;9.184;2022-07-29T07:52:20;98233.88;;;24.99;82.04
49843;BME280;55559;48.898;9.184;2022-07-29T07:54:48;98239.44;;;25.16;83.41
49843;BME280;55559;48.898;9.184;2022-07-29T07:57:16;98239.31;;;25.11;79.42
49843;BME280;55559;48.898;9.184;2022-07-29T07:59:44;98226.06;;;24.48;85.71
49843;BME280;55559;48.898;9.184;2022-07-29T08:02:11;98236.06;;;24.55;88.84
49843;BME280;55559;48.898;9.184;2022-07-29T08:04:40;98239.09;;;25.12;80.94
49843;BME280;55559;48.898;9.184;2022-07-29T08:07:08;98236.50;;;25.29;77.29
49843;BME280;55559;48.898;9.184;2022-07-29T08:09:36;98237.44;;;25.58;74.92
49843;BME280;55559;48.898;9.184;2022-07-29T08:12:04;98242.50;;;25.19;76.36
49843;BME280;55559;48.898;9.184;2022-07-29T08:14:32;98247.13;;;25.19;76.53
49843;BME280;55559;48.898;9.184;2022-07-29T08:17:00;98241.22;;;24.98;79.94
49843;BME280;55559;48.898;9.184;2022-07-29T08:19:27;98237.53;;;24.81;80.79
49843;BME280;55559;48.898;9.184;2022-07-29T08:21:56;98238.72;;;24.43;80.84
49843;BME280;55559;48.898;9.184;2022-07-29T08:24:23;98236.91;;;24.67;78.52
49843;BME280;55559;48.898;9.184;2022-07-29T08:27:08;98244.72;;;24.75;76.78
49843;BME280;55559;48.898;9.184;2022-07-29T08:29:36;98240.28;;;24.93;75.26
49843;BME280;55559;48.898;9.184;2022-07-29T08:32:05;98248.81;;;25.20;74.84
49843;BME280;55559;48.898;9.184;2022-07-29T08:34:32;98246.34;;;25.30;72.67
49843;BME280;55559;48.898;9.184;2022-07-29T08:37:01;98245.63;;;25.47;71.17
49843;BME280;55559;48.898;9.184;2022-07-29T08:39:29;98238.38;;;24.81;75.08
49843;BME280;55559;48.898;9.184;2022-07-29T08:41:56;98234.84;;;25.04;74.40
49843;BME280;55559;48.898;9.184;2022-07-29T08:44:24;98239.09;;;25.36;72.96
49843;BME280;55559;48.898;9.184;2022-07-29T08:46:52;98247.06;;;25.90;68.50
49843;BME280;55559;48.898;9.184;2022-07-29T08:49:20;98236.63;;;25.98;65.90
49843;BME280;55559;48.898;9.184;2022-07-29T08:51:47;98239.06;;;26.12;63.66
49843;BME280;55559;48.898;9.184;2022-07-29T08:54:18;98243.72;;;25.59;65.37
49843;BME280;55559;48.898;9.184;2022-07-29T08:56:48;98246.22;;;25.37;65.31
49843;BME280;55559;48.898;9.184;2022-07-29T08:59:20;98238.34;;;24.69;70.47
49843;BME280;55559;48.898;9.184;2022-07-29T09:01:48;98242.16;;;25.04;69.21
49843;BME280;55559;48.898;9.184;2022-07-29T09:04:19;98230.81;;;25.42;66.97
49843;BME280;55559;48.898;9.184;2022-07-29T09:06:49;98238.72;;;25.56;64.34
49843;BME280;55559;48.898;9.184;2022-07-29T09:09:20;98246.44;;;25.59;63.48
49843;BME280;55559;48.898;9.184;2022-07-29T09:11:47;98245.22;;;25.67;61.52
49843;BME280;55559;48.898;9.184;2022-07-29T09:14:16;98242.50;;;25.67;62.38
49843;BME280;55559;48.898;9.184;2022-07-29T09:16:49;98252.25;;;25.51;63.82
49843;BME280;55559;48.898;9.184;2022-07-29T09:19:29;98256.75;;;25.57;63.25
49843;BME280;55559;48.898;9.184;2022-07-29T09:21:58;98247.06;;;26.30;59.89
49843;BME280;55559;48.898;9.184;2022-07-29T09:24:28;98237.25;;;26.01;61.26
49843;BME280;55559;48.898;9.184;2022-07-29T09:27:08;98246.31;;;25.66;62.13
49843;BME280;55559;48.898;9.184;2022-07-29T09:29:36;98239.97;;;26.29;59.20
49843;BME280;55559;48.898;9.184;2022-07-29T09:32:08;98245.84;;;26.09;59.78
49843;BME280;55559;48.898;9.184;2022-07-29T09:34:36;98242.16;;;26.61;58.23
49843;BME280;55559;48.898;9.184;2022-07-29T09:37:04;98246.09;;;26.65;58.64
49843;BME280;55559;48.898;9.184;2022-07-29T09:39:35;98242.91;;;26.11;60.93
49843;BME280;55559;48.898;9.184;2022-07-29T09:42:04;98236.94;;;26.14;60.10
49843;BME280;55559;48.898;9.184;2022-07-29T09:44:43;98238.34;;;26.16;58.27
49843;BME280;55559;48.898;9.184;2022-07-29T09:47:11;98242.72;;;26.46;56.68
49843;BME280;55559;48.898;9.184;2022-07-29T09:49:53;98239.59;;;26.54;56.37
49843;BME280;55559;48.898;9.184;2022-07-29T09:52:21;98237.75;;;27.06;52.70
49843;BME280;55559;48.898;9.184;2022-07-29T09:54:50;98225.66;;;26.85;56.12
49843;BME280;55559;48.898;9.184;2022-07-29T09:57:24;98228.00;;;26.47;55.86
49843;BME280;55559;48.898;9.184;2022-07-29T09:59:56;98236.41;;;26.75;56.26
49843;BME280;55559;48.898;9.184;2022-07-29T10:02:29;98232.63;;;26.30;57.42
49843;BME280;55559;48.898;9.184;2022-07-29T10:04:57;98234.63;;;26.34;57.16
49843;BME280;55559;48.898;9.184;2022-07-29T10:07:25;98241.00;;;26.57;57.22
49843;BME280;55559;48.898;9.184;2022-07-29T10:09:56;98225.47;;;27.42;52.84
49843;BME280;55559;48.898;9.184;2022-07-29T10:12:24;98227.31;;;26.69;55.07
49843;BME280;55559;48.898;9.184;2022-07-29T10:14:52;98229.47;;;26.21;56.49
49843;BME280;55559;48.898;9.184;2022-07-29T10:17:20;98236.34;;;25.71;58.09
49843;BME280;55559;48.898;9.184;2022-07-29T10:19:49;98224.72;;;25.76;57.66
49843;BME280;55559;48.898;9.184;2022-07-29T10:22:16;98233.06;;;26.55;54.77
49843;BME280;55559;48.898;9.184;2022-07-29T10:24:44;98228.59;;;26.49;54.00
49843;BME280;55559;48.898;9.184;2022-07-29T10:27:13;98229.56;;;26.89;53.25
49843;BME280;55559;48.898;9.184;2022-07-29T10:29:41;98221.16;;;26.45;53.20
49843;BME280;55559;48.898;9.184;2022-07-29T10:32:29;98222.97;;;26.10;55.05
49843;BME280;55559;48.898;9.184;2022-07-29T10:35:18;98221.13;;;26.28;54.89
49843;BME280;55559;48.898;9.184;2022-07-29T10:38:09;98221.53;;;25.79;56.20
49843;BME280;55559;48.898;9.184;2022-07-29T10:40:48;98217.56;;;25.98;56.26
49843;BME280;55559;48.898;9.184;2022-07-29T10:43:41;98209.63;;;25.97;56.27
49843;BME280;55559;48.898;9.184;2022-07-29T10:46:10;98213.34;;;25.79;57.26
49843;BME280;55559;48.898;9.184;2022-07-29T10:49:09;98206.88;;;25.56;56.79
49843;BME280;55559;48.898;9.184;2022-07-29T10:51:53;98208.31;;;25.59;56.73
49843;BME280;55559;48.898;9.184;2022-07-29T10:54:40;98209.63;;;25.44;56.70
49843;BME280;55559;48.898;9.184;2022-07-29T10:57:27;98212.72;;;25.36;55.72
49843;BME280;55559;48.898;9.184;2022-07-29T11:00:31;98208.34;;;25.23;56.12
49843;BME280;55559;48.898;9.184;2022-07-29T11:02:59;98213.09;;;25.40;55.12
49843;BME280;55559;48.898;9.184;2022-07-29T11:05:27;98202.44;;;25.38;55.98
49843;BME280;55559;48.898;9.184;2022-07-29T11:08:16;98205.63;;;25.47;54.50
49843;BME280;55559;48.898;9.184;2022-07-29T11:10:47;98209.53;;;25.39;54.77
49843;BME280;55559;48.898;9.184;2022-07-29T11:16:59;98209.13;;;25.59;53.53
49843;BME280;55559;48.898;9.184;2022-07-29T11:19:28;98207.78;;;25.86;52.76
49843;BME280;55559;48.898;9.184;2022-07-29T11:21:56;98206.72;;;25.75;51.56
49843;BME280;55559;48.898;9.184;2022-07-29T11:24:25;98212.78;;;25.77;51.94
49843;BME280;55559;48.898;9.184;2022-07-29T11:27:11;98202.31;;;25.86;50.98
49843;BME280;55559;48.898;9.184;2022-07-29T11:29:50;98206.41;;;25.59;50.00
49843;BME280;55559;48.898;9.184;2022-07-29T11:32:20;98199.88;;;25.72;48.83
49843;BME280;55559;48.898;9.184;2022-07-29T11:34:48;98216.59;;;26.05;47.83
49843;BME280;55559;48.898;9.184;2022-07-29T11:37:23;98226.72;;;26.21;47.65
49843;BME280;55559;48.898;9.184;2022-07-29T11:40:24;98225.66;;;26.85;46.81
49843;BME280;55559;48.898;9.184;2022-07-29T11:42:52;98210.66;;;27.21;44.97
49843;BME280;55559;48.898;9.184;2022-07-29T11:45:24;98230.59;;;27.39;45.55
49843;BME280;55559;48.898;9.184;2022-07-29T11:47:57;98209.59;;;28.33;44.95
49843;BME280;55559;48.898;9.184;2022-07-29T11:50:34;98198.81;;;28.75;44.64
49843;BME280;55559;48.898;9.184;2022-07-29T11:53:03;98198.59;;;28.55;47.75
49843;BME280;55559;48.898;9.184;2022-07-29T11:55:37;98188.00;;;28.31;50.08
49843;BME280;55559;48.898;9.184;2022-07-29T11:58:05;98192.13;;;28.34;51.59
49843;BME280;55559;48.898;9.184;2022-07-29T12:00:34;98193.88;;;28.45;51.28
49843;BME280;55559;48.898;9.184;2022-07-29T12:03:06;98198.78;;;28.16;54.55
49843;BME280;55559;48.898;9.184;2022-07-29T12:05:37;98205.84;;;27.45;61.30
49843;BME280;55559;48.898;9.184;2022-07-29T12:08:06;98210.09;;;27.80;58.79
49843;BME280;55559;48.898;9.184;2022-07-29T12:10:34;98195.44;;;27.64;59.20
49843;BME280;55559;48.898;9.184;2022-07-29T12:13:02;98202.09;;;27.74;58.31
49843;BME280;55559;48.898;9.184;2022-07-29T12:15:30;98203.44;;;27.49;57.65
49843;BME280;55559;48.898;9.184;2022-07-29T12:17:57;98199.81;;;27.43;57.93
49843;BME280;55559;48.898;9.184;2022-07-29T12:20:28;98203.25;;;27.00;59.18
49843;BME280;55559;48.898;9.184;2022-07-29T12:22:56;98200.28;;;26.67;60.29
49843;BME280;55559;48.898;9.184;2022-07-29T12:25:24;98201.47;;;26.71;59.62
49843;BME280;55559;48.898;9.184;2022-07-29T12:27:59;98201.88;;;26.97;58.50
49843;BME280;55559;48.898;9.184;2022-07-29T12:30:41;98210.66;;;27.21;58.44
49843;BME280;55559;48.898;9.184;2022-07-29T12:33:15;98205.56;;;26.91;58.75
49843;BME280;55559;48.898;9.184;2022-07-29T12:35:47;98207.81;;;26.94;58.06
49843;BME280;55559;48.898;9.184;2022-07-29T12:38:15;98210.75;;;26.59;60.15
49843;BME280;55559;48.898;9.184;2022-07-29T12:40:43;98205.19;;;26.65;62.04
49843;BME280;55559;48.898;9.184;2022-07-29T12:43:12;98210.28;;;26.16;65.51
49843;BME280;55559;48.898;9.184;2022-07-29T12:45:41;98201.91;;;26.34;63.67
49843;BME280;55559;48.898;9.184;2022-07-29T12:48:09;98207.31;;;26.17;64.45
49843;BME280;55559;48.898;9.184;2022-07-29T12:50:53;98206.91;;;26.26;63.17
49843;BME280;55559;48.898;9.184;2022-07-29T12:53:21;98212.78;;;26.17;62.72
49843;BME280;55559;48.898;9.184;2022-07-29T12:55:50;98215.44;;;26.01;62.13
49843;BME280;55559;48.898;9.184;2022-07-29T12:58:29;98212.91;;;26.11;61.95
49843;BME280;55559;48.898;9.184;2022-07-29T13:01:05;98212.03;;;26.39;61.43
49843;BME280;55559;48.898;9.184;2022-07-29T13:03:49;98212.59;;;26.53;61.07
49843;BME280;55559;48.898;9.184;2022-07-29T13:06:33;98215.22;;;26.48;61.92
49843;BME280;55559;48.898;9.184;2022-07-29T13:09:04;98219.50;;;26.44;62.43
49843;BME280;55559;48.898;9.184;2022-07-29T13:11:33;98217.22;;;26.24;63.51
49843;BME280;55559;48.898;9.184;2022-07-29T13:14:01;98225.13;;;26.08;64.08
49843;BME280;55559;48.898;9.184;2022-07-29T13:16:28;98230.59;;;26.25;63.90